sensor_id;sensor_type;location;lat;lon;timestamp;P1;durP1;ratioP1;P2;durP2;ratioP2
17618;SDS011;8928;51.678;6.074;2023-02-17T00:00:37;62.67;;;30.10;;
17618;SDS011;8928;51.678;6.074;2023-02-17T00:03:24;59.30;;;30.03;;
17618;SDS011;8928;51.678;6.074;2023-02-17T00:06:12;63.00;;;29.60;;
17618;SDS011;8928;51.678;6.074;2023-02-17T00:09:00;59.40;;;29.27;;
17618;SDS011;8928;51.678;6.074;2023-02-17T00:11:47;62.67;;;29.10;;
17618;SDS011;8928;51.678;6.074;2023-02-17T00:14:37;61.57;;;29.13;;
17618;SDS011;8928;51.678;6.074;2023-02-17T00:17:24;65.17;;;29.50;;
17618;SDS011;8928;51.678;6.074;2023-02-17T00:20:11;58.30;;;27.60;;
17618;SDS011;8928;51.678;6.074;2023-02-17T00:22:58;58.37;;;27.27;;
17618;SDS011;8928;51.678;6.074;2023-02-17T00:25:45;51.90;;;27.13;;
17618;SDS011;8928;51.678;6.074;2023-02-17T00:28:32;51.80;;;25.57;;
17618;SDS011;8928;51.678;6.074;2023-02-17T00:31:21;52.00;;;26.37;;
17618;SDS011;8928;51.678;6.074;2023-02-17T00:34:08;45.87;;;24.33;;
17618;SDS011;8928;51.678;6.074;2023-02-17T00:36:55;46.13;;;23.63;;
17618;SDS011;8928;51.678;6.074;2023-02-17T00:39:43;45.27;;;23.53;;
17618;SDS011;8928;51.678;6.074;2023-02-17T00:42:30;44.43;;;22.93;;
17618;SDS011;8928;51.678;6.074;2023-02-17T00:45:17;46.03;;;23.03;;
17618;SDS011;8928;51.678;6.074;2023-02-17T00:48:05;45.37;;;22.70;;
17618;SDS011;8928;51.678;6.074;2023-02-17T00:50:52;44.73;;;23.53;;
17618;SDS011;8928;51.678;6.074;2023-02-17T00:53:39;41.33;;;22.50;;
17618;SDS011;8928;51.678;6.074;2023-02-17T00:56:26;45.50;;;22.90;;
17618;SDS011;8928;51.678;6.074;2023-02-17T00:59:13;44.37;;;22.90;;
17618;SDS011;8928;51.678;6.074;2023-02-17T01:02:00;41.70;;;23.00;;
17618;SDS011;8928;51.678;6.074;2023-02-17T01:04:49;44.53;;;22.53;;
17618;SDS011;8928;51.678;6.074;2023-02-17T01:07:36;40.33;;;22.97;;
17618;SDS011;8928;51.678;6.074;2023-02-17T01:10:24;45.60;;;23.77;;
17618;SDS011;8928;51.678;6.074;2023-02-17T01:13:11;42.77;;;22.73;;
17618;SDS011;8928;51.678;6.074;2023-02-17T01:15:59;48.47;;;23.30;;
17618;SDS011;8928;51.678;6.074;2023-02-17T01:18:46;46.73;;;23.53;;
17618;SDS011;8928;51.678;6.074;2023-02-17T01:21:35;42.63;;;22.57;;
17618;SDS011;8928;51.678;6.074;2023-02-17T01:24:22;47.00;;;24.00;;
17618;SDS011;8928;51.678;6.074;2023-02-17T01:27:09;46.60;;;24.43;;
17618;SDS011;8928;51.678;6.074;2023-02-17T01:29:56;43.07;;;23.73;;
17618;SDS011;8928;51.678;6.074;2023-02-17T01:32:43;40.87;;;22.37;;
17618;SDS011;8928;51.678;6.074;2023-02-17T01:35:31;43.07;;;22.30;;
17618;SDS011;8928;51.678;6.074;2023-02-17T01:38:20;40.87;;;21.43;;
17618;SDS011;8928;51.678;6.074;2023-02-17T01:41:07;38.77;;;20.33;;
17618;SDS011;8928;51.678;6.074;2023-02-17T01:44:06;34.43;;;19.37;;
17618;SDS011;8928;51.678;6.074;2023-02-17T01:46:57;34.13;;;18.83;;
17618;SDS011;8928;51.678;6.074;2023-02-17T01:49:44;32.80;;;17.80;;
17618;SDS011;8928;51.678;6.074;2023-02-17T01:52:31;32.00;;;17.00;;
17618;SDS011;8928;51.678;6.074;2023-02-17T01:55:19;28.87;;;15.97;;
17618;SDS011;8928;51.678;6.074;2023-02-17T01:58:10;28.77;;;16.50;;
17618;SDS011;8928;51.678;6.074;2023-02-17T02:01:00;26.83;;;14.87;;
17618;SDS011;8928;51.678;6.074;2023-02-17T02:03:50;25.40;;;14.07;;
17618;SDS011;8928;51.678;6.074;2023-02-17T02:06:38;24.10;;;14.13;;
17618;SDS011;8928;51.678;6.074;2023-02-17T02:09:29;22.73;;;13.87;;
17618;SDS011;8928;51.678;6.074;2023-02-17T02:12:22;21.30;;;13.07;;
17618;SDS011;8928;51.678;6.074;2023-02-17T02:15:12;23.60;;;13.33;;
17618;SDS011;8928;51.678;6.074;2023-02-17T02:18:03;21.67;;;12.60;;
17618;SDS011;8928;51.678;6.074;2023-02-17T02:21:19;17.73;;;11.57;;
17618;SDS011;8928;51.678;6.074;2023-02-17T02:24:26;18.47;;;11.70;;
17618;SDS011;8928;51.678;6.074;2023-02-17T02:30:41;17.60;;;11.20;;
17618;SDS011;8928;51.678;6.074;2023-02-17T02:33:37;18.07;;;10.77;;
17618;SDS011;8928;51.678;6.074;2023-02-17T02:36:30;16.73;;;10.83;;
17618;SDS011;8928;51.678;6.074;2023-02-17T02:39:23;18.47;;;9.90;;
17618;SDS011;8928;51.678;6.074;2023-02-17T02:42:15;16.30;;;10.10;;
17618;SDS011;8928;51.678;6.074;2023-02-17T02:45:04;16.97;;;9.53;;
17618;SDS011;8928;51.678;6.074;2023-02-17T02:47:53;16.63;;;10.03;;
17618;SDS011;8928;51.678;6.074;2023-02-17T02:50:53;16.27;;;9.30;;
17618;SDS011;8928;51.678;6.074;2023-02-17T02:57:12;16.70;;;10.00;;
17618;SDS011;8928;51.678;6.074;2023-02-17T03:00:09;18.87;;;10.73;;
17618;SDS011;8928;51.678;6.074;2023-02-17T03:03:03;21.90;;;11.73;;
17618;SDS011;8928;51.678;6.074;2023-02-17T03:05:58;20.93;;;12.07;;
17618;SDS011;8928;51.678;6.074;2023-02-17T03:08:52;20.87;;;11.83;;
17618;SDS011;8928;51.678;6.074;2023-02-17T03:11:42;19.17;;;11.40;;
17618;SDS011;8928;51.678;6.074;2023-02-17T03:14:33;21.27;;;11.00;;
17618;SDS011;8928;51.678;6.074;2023-02-17T03:17:22;19.70;;;11.27;;
17618;SDS011;8928;51.678;6.074;2023-02-17T03:20:09;18.50;;;10.73;;
17618;SDS011;8928;51.678;6.074;2023-02-17T03:22:59;19.03;;;10.50;;
17618;SDS011;8928;51.678;6.074;2023-02-17T03:25:46;17.40;;;10.30;;
17618;SDS011;8928;51.678;6.074;2023-02-17T03:28:33;19.57;;;10.90;;
17618;SDS011;8928;51.678;6.074;2023-02-17T03:31:20;21.00;;;10.90;;
17618;SDS011;8928;51.678;6.074;2023-02-17T03:34:08;24.67;;;10.87;;
17618;SDS011;8928;51.678;6.074;2023-02-17T03:36:55;18.83;;;10.90;;
17618;SDS011;8928;51.678;6.074;2023-02-17T03:39:43;19.17;;;10.77;;
17618;SDS011;8928;51.678;6.074;2023-02-17T03:42:30;18.77;;;10.60;;
17618;SDS011;8928;51.678;6.074;2023-02-17T03:45:17;19.13;;;10.43;;
17618;SDS011;8928;51.678;6.074;2023-02-17T03:48:04;21.70;;;10.70;;
17618;SDS011;8928;51.678;6.074;2023-02-17T03:50:51;19.73;;;10.67;;
17618;SDS011;8928;51.678;6.074;2023-02-17T03:53:38;20.50;;;11.10;;
17618;SDS011;8928;51.678;6.074;2023-02-17T03:56:27;21.40;;;11.50;;
17618;SDS011;8928;51.678;6.074;2023-02-17T03:59:14;22.80;;;10.70;;
17618;SDS011;8928;51.678;6.074;2023-02-17T04:02:01;20.80;;;10.67;;
17618;SDS011;8928;51.678;6.074;2023-02-17T04:04:49;21.43;;;10.30;;
17618;SDS011;8928;51.678;6.074;2023-02-17T04:07:36;18.57;;;10.17;;
17618;SDS011;8928;51.678;6.074;2023-02-17T04:10:23;16.07;;;9.07;;
17618;SDS011;8928;51.678;6.074;2023-02-17T04:13:11;16.17;;;8.80;;
17618;SDS011;8928;51.678;6.074;2023-02-17T04:15:58;14.87;;;8.10;;
17618;SDS011;8928;51.678;6.074;2023-02-17T04:18:46;13.80;;;8.23;;
17618;SDS011;8928;51.678;6.074;2023-02-17T04:21:33;13.77;;;7.97;;
17618;SDS011;8928;51.678;6.074;2023-02-17T04:24:20;12.70;;;7.90;;
17618;SDS011;8928;51.678;6.074;2023-02-17T04:27:07;12.60;;;7.37;;
17618;SDS011;8928;51.678;6.074;2023-02-17T04:29:56;11.53;;;7.50;;
17618;SDS011;8928;51.678;6.074;2023-02-17T04:32:43;12.90;;;7.30;;
17618;SDS011;8928;51.678;6.074;2023-02-17T04:35:30;12.83;;;7.07;;
17618;SDS011;8928;51.678;6.074;2023-02-17T04:38:17;13.67;;;6.87;;
17618;SDS011;8928;51.678;6.074;2023-02-17T04:41:04;13.60;;;7.50;;
17618;SDS011;8928;51.678;6.074;2023-02-17T04:43:51;12.50;;;6.97;;
17618;SDS011;8928;51.678;6.074;2023-02-17T04:46:40;12.87;;;7.23;;
17618;SDS011;8928;51.678;6.074;2023-02-17T04:49:27;11.80;;;6.80;;
17618;SDS011;8928;51.678;6.074;2023-02-17T04:52:14;11.60;;;6.97;;
17618;SDS011;8928;51.678;6.074;2023-02-17T04:55:01;11.97;;;6.67;;
17618;SDS011;8928;51.678;6.074;2023-02-17T04:57:48;16.93;;;7.17;;
17618;SDS011;8928;51.678;6.074;2023-02-17T05:00:35;12.53;;;7.07;;
17618;SDS011;8928;51.678;6.074;2023-02-17T05:03:24;11.83;;;7.33;;
17618;SDS011;8928;51.678;6.074;2023-02-17T05:06:11;13.20;;;6.90;;
17618;SDS011;8928;51.678;6.074;2023-02-17T05:08:58;13.03;;;7.10;;
17618;SDS011;8928;51.678;6.074;2023-02-17T05:11:45;14.10;;;7.53;;
17618;SDS011;8928;51.678;6.074;2023-02-17T05:14:32;14.77;;;7.20;;
17618;SDS011;8928;51.678;6.074;2023-02-17T05:17:19;12.60;;;6.90;;
17618;SDS011;8928;51.678;6.074;2023-02-17T05:20:08;15.30;;;6.83;;
17618;SDS011;8928;51.678;6.074;2023-02-17T05:22:56;14.77;;;7.47;;
17618;SDS011;8928;51.678;6.074;2023-02-17T05:25:43;12.80;;;7.50;;
17618;SDS011;8928;51.678;6.074;2023-02-17T05:28:30;13.53;;;7.27;;
17618;SDS011;8928;51.678;6.074;2023-02-17T05:31:17;13.00;;;6.93;;
17618;SDS011;8928;51.678;6.074;2023-02-17T05:34:04;11.17;;;6.67;;
17618;SDS011;8928;51.678;6.074;2023-02-17T05:36:52;11.63;;;6.63;;
17618;SDS011;8928;51.678;6.074;2023-02-17T05:39:39;11.43;;;6.57;;
17618;SDS011;8928;51.678;6.074;2023-02-17T05:42:26;12.73;;;6.77;;
17618;SDS011;8928;51.678;6.074;2023-02-17T05:45:13;13.77;;;6.60;;
17618;SDS011;8928;51.678;6.074;2023-02-17T05:48:00;12.37;;;6.33;;
17618;SDS011;8928;51.678;6.074;2023-02-17T05:50:48;10.73;;;6.03;;
17618;SDS011;8928;51.678;6.074;2023-02-17T05:53:36;11.20;;;6.20;;
17618;SDS011;8928;51.678;6.074;2023-02-17T05:56:23;13.70;;;6.07;;
17618;SDS011;8928;51.678;6.074;2023-02-17T05:59:10;11.13;;;5.70;;
17618;SDS011;8928;51.678;6.074;2023-02-17T06:01:57;11.77;;;5.90;;
17618;SDS011;8928;51.678;6.074;2023-02-17T06:04:44;11.17;;;6.10;;
17618;SDS011;8928;51.678;6.074;2023-02-17T06:07:31;11.50;;;5.80;;
17618;SDS011;8928;51.678;6.074;2023-02-17T06:10:20;11.67;;;5.70;;
17618;SDS011;8928;51.678;6.074;2023-02-17T06:13:07;13.47;;;6.00;;
17618;SDS011;8928;51.678;6.074;2023-02-17T06:15:54;11.63;;;6.13;;
17618;SDS011;8928;51.678;6.074;2023-02-17T06:18:41;12.60;;;6.47;;
17618;SDS011;8928;51.678;6.074;2023-02-17T06:21:28;14.97;;;6.50;;
17618;SDS011;8928;51.678;6.074;2023-02-17T06:24:16;12.20;;;6.60;;
17618;SDS011;8928;51.678;6.074;2023-02-17T06:27:04;15.47;;;7.07;;
17618;SDS011;8928;51.678;6.074;2023-02-17T06:29:51;15.90;;;6.70;;
17618;SDS011;8928;51.678;6.074;2023-02-17T06:32:38;13.27;;;6.97;;
17618;SDS011;8928;51.678;6.074;2023-02-17T06:35:25;14.10;;;7.70;;
17618;SDS011;8928;51.678;6.074;2023-02-17T06:38:12;14.87;;;7.80;;
17618;SDS011;8928;51.678;6.074;2023-02-17T06:40:59;15.80;;;7.47;;
17618;SDS011;8928;51.678;6.074;2023-02-17T06:43:47;13.93;;;7.23;;
17618;SDS011;8928;51.678;6.074;2023-02-17T06:46:34;17.53;;;8.53;;
17618;SDS011;8928;51.678;6.074;2023-02-17T06:49:21;19.07;;;8.70;;
17618;SDS011;8928;51.678;6.074;2023-02-17T06:52:09;19.33;;;9.33;;
17618;SDS011;8928;51.678;6.074;2023-02-17T06:54:56;19.07;;;8.93;;
17618;SDS011;8928;51.678;6.074;2023-02-17T06:57:43;19.17;;;9.07;;
17618;SDS011;8928;51.678;6.074;2023-02-17T07:00:31;20.80;;;9.23;;
17618;SDS011;8928;51.678;6.074;2023-02-17T07:03:18;19.43;;;9.07;;
17618;SDS011;8928;51.678;6.074;2023-02-17T07:06:05;22.27;;;10.03;;
17618;SDS011;8928;51.678;6.074;2023-02-17T07:08:52;23.17;;;10.23;;
17618;SDS011;8928;51.678;6.074;2023-02-17T07:11:39;23.00;;;9.73;;
17618;SDS011;8928;51.678;6.074;2023-02-17T07:14:28;20.57;;;9.73;;
17618;SDS011;8928;51.678;6.074;2023-02-17T07:17:19;22.43;;;10.07;;
17618;SDS011;8928;51.678;6.074;2023-02-17T07:20:07;20.73;;;10.17;;
17618;SDS011;8928;51.678;6.074;2023-02-17T07:22:54;20.33;;;9.97;;
17618;SDS011;8928;51.678;6.074;2023-02-17T07:25:41;24.40;;;10.20;;
17618;SDS011;8928;51.678;6.074;2023-02-17T07:28:28;18.73;;;9.50;;
17618;SDS011;8928;51.678;6.074;2023-02-17T07:31:16;23.30;;;10.47;;
17618;SDS011;8928;51.678;6.074;2023-02-17T07:34:04;26.67;;;10.97;;
17618;SDS011;8928;51.678;6.074;2023-02-17T07:36:51;20.53;;;10.17;;
17618;SDS011;8928;51.678;6.074;2023-02-17T07:39:39;25.67;;;11.50;;
17618;SDS011;8928;51.678;6.074;2023-02-17T07:42:26;22.83;;;10.63;;
17618;SDS011;8928;51.678;6.074;2023-02-17T07:45:13;23.90;;;10.43;;
17618;SDS011;8928;51.678;6.074;2023-02-17T07:48:01;24.10;;;10.77;;
17618;SDS011;8928;51.678;6.074;2023-02-17T07:50:49;20.97;;;10.43;;
17618;SDS011;8928;51.678;6.074;2023-02-17T07:53:36;24.97;;;10.33;;
17618;SDS011;8928;51.678;6.074;2023-02-17T07:56:24;21.13;;;10.23;;
17618;SDS011;8928;51.678;6.074;2023-02-17T07:59:11;18.90;;;10.40;;
17618;SDS011;8928;51.678;6.074;2023-02-17T08:01:59;21.20;;;9.50;;
17618;SDS011;8928;51.678;6.074;2023-02-17T08:04:46;18.77;;;9.53;;
17618;SDS011;8928;51.678;6.074;2023-02-17T08:07:34;18.43;;;9.20;;
17618;SDS011;8928;51.678;6.074;2023-02-17T08:10:21;20.10;;;9.37;;
17618;SDS011;8928;51.678;6.074;2023-02-17T08:13:26;20.60;;;9.90;;
17618;SDS011;8928;51.678;6.074;2023-02-17T08:16:13;17.97;;;8.63;;
17618;SDS011;8928;51.678;6.074;2023-02-17T08:19:00;20.87;;;9.47;;
17618;SDS011;8928;51.678;6.074;2023-02-17T08:21:47;19.13;;;8.73;;
17618;SDS011;8928;51.678;6.074;2023-02-17T08:24:36;17.17;;;8.83;;
17618;SDS011;8928;51.678;6.074;2023-02-17T08:27:23;17.00;;;8.63;;
17618;SDS011;8928;51.678;6.074;2023-02-17T08:30:11;17.07;;;9.20;;
17618;SDS011;8928;51.678;6.074;2023-02-17T08:32:58;15.87;;;8.60;;
17618;SDS011;8928;51.678;6.074;2023-02-17T08:35:45;16.80;;;8.43;;
17618;SDS011;8928;51.678;6.074;2023-02-17T08:38:32;19.47;;;8.27;;
17618;SDS011;8928;51.678;6.074;2023-02-17T08:41:22;16.13;;;8.43;;
17618;SDS011;8928;51.678;6.074;2023-02-17T08:44:13;16.83;;;7.90;;
17618;SDS011;8928;51.678;6.074;2023-02-17T08:47:02;15.47;;;7.87;;
17618;SDS011;8928;51.678;6.074;2023-02-17T08:49:50;14.10;;;7.70;;
17618;SDS011;8928;51.678;6.074;2023-02-17T08:52:37;18.77;;;8.00;;
17618;SDS011;8928;51.678;6.074;2023-02-17T08:55:24;15.67;;;7.67;;
17618;SDS011;8928;51.678;6.074;2023-02-17T08:58:12;14.90;;;7.30;;
17618;SDS011;8928;51.678;6.074;2023-02-17T09:00:59;14.33;;;7.17;;
17618;SDS011;8928;51.678;6.074;2023-02-17T09:03:47;13.53;;;7.40;;
17618;SDS011;8928;51.678;6.074;2023-02-17T09:06:35;12.50;;;7.10;;
17618;SDS011;8928;51.678;6.074;2023-02-17T09:09:24;14.40;;;7.43;;
17618;SDS011;8928;51.678;6.074;2023-02-17T09:12:12;15.47;;;7.03;;
17618;SDS011;8928;51.678;6.074;2023-02-17T09:15:00;12.20;;;6.93;;
17618;SDS011;8928;51.678;6.074;2023-02-17T09:17:47;12.67;;;7.00;;
17618;SDS011;8928;51.678;6.074;2023-02-17T09:20:35;12.90;;;7.10;;
17618;SDS011;8928;51.678;6.074;2023-02-17T09:23:23;13.03;;;7.07;;
17618;SDS011;8928;51.678;6.074;2023-02-17T09:26:11;13.87;;;7.27;;
17618;SDS011;8928;51.678;6.074;2023-02-17T09:29:00;12.43;;;7.07;;
17618;SDS011;8928;51.678;6.074;2023-02-17T09:31:49;12.53;;;7.43;;
17618;SDS011;8928;51.678;6.074;2023-02-17T09:34:36;12.53;;;7.17;;
17618;SDS011;8928;51.678;6.074;2023-02-17T09:37:26;11.80;;;6.97;;
17618;SDS011;8928;51.678;6.074;2023-02-17T09:40:14;12.60;;;7.60;;
17618;SDS011;8928;51.678;6.074;2023-02-17T09:43:05;11.90;;;7.13;;
17618;SDS011;8928;51.678;6.074;2023-02-17T09:45:57;12.70;;;7.40;;
17618;SDS011;8928;51.678;6.074;2023-02-17T09:48:49;12.57;;;7.43;;
17618;SDS011;8928;51.678;6.074;2023-02-17T09:51:38;15.87;;;6.87;;
17618;SDS011;8928;51.678;6.074;2023-02-17T09:54:30;12.97;;;7.30;;
17618;SDS011;8928;51.678;6.074;2023-02-17T09:57:20;11.30;;;6.97;;
17618;SDS011;8928;51.678;6.074;2023-02-17T10:00:12;13.53;;;7.83;;
17618;SDS011;8928;51.678;6.074;2023-02-17T10:03:03;13.73;;;7.77;;
17618;SDS011;8928;51.678;6.074;2023-02-17T10:06:01;13.40;;;7.83;;
17618;SDS011;8928;51.678;6.074;2023-02-17T10:08:58;12.27;;;7.63;;
17618;SDS011;8928;51.678;6.074;2023-02-17T10:11:50;12.87;;;7.97;;
17618;SDS011;8928;51.678;6.074;2023-02-17T10:14:42;11.27;;;7.33;;
17618;SDS011;8928;51.678;6.074;2023-02-17T10:17:34;12.83;;;8.00;;
17618;SDS011;8928;51.678;6.074;2023-02-17T10:20:27;12.73;;;7.83;;
17618;SDS011;8928;51.678;6.074;2023-02-17T10:23:20;11.23;;;7.63;;
17618;SDS011;8928;51.678;6.074;2023-02-17T10:26:12;12.33;;;7.97;;
17618;SDS011;8928;51.678;6.074;2023-02-17T10:29:05;12.97;;;7.80;;
17618;SDS011;8928;51.678;6.074;2023-02-17T10:32:04;12.87;;;8.37;;
17618;SDS011;8928;51.678;6.074;2023-02-17T10:35:11;14.53;;;8.33;;
17618;SDS011;8928;51.678;6.074;2023-02-17T10:38:02;12.10;;;8.20;;
17618;SDS011;8928;51.678;6.074;2023-02-17T10:40:59;12.03;;;8.17;;
17618;SDS011;8928;51.678;6.074;2023-02-17T10:43:48;13.73;;;8.77;;
17618;SDS011;8928;51.678;6.074;2023-02-17T10:46:36;12.30;;;8.20;;
17618;SDS011;8928;51.678;6.074;2023-02-17T10:49:28;14.30;;;8.40;;
17618;SDS011;8928;51.678;6.074;2023-02-17T10:52:17;11.60;;;8.23;;
17618;SDS011;8928;51.678;6.074;2023-02-17T10:55:07;13.80;;;8.33;;
17618;SDS011;8928;51.678;6.074;2023-02-17T10:58:09;12.10;;;7.50;;
17618;SDS011;8928;51.678;6.074;2023-02-17T11:00:59;11.63;;;7.73;;
17618;SDS011;8928;51.678;6.074;2023-02-17T11:03:57;11.77;;;7.47;;
17618;SDS011;8928;51.678;6.074;2023-02-17T11:06:47;11.43;;;7.77;;
17618;SDS011;8928;51.678;6.074;2023-02-17T11:09:38;11.27;;;8.33;;
17618;SDS011;8928;51.678;6.074;2023-02-17T11:12:32;11.23;;;8.23;;
17618;SDS011;8928;51.678;6.074;2023-02-17T11:15:26;12.00;;;8.90;;
17618;SDS011;8928;51.678;6.074;2023-02-17T11:18:17;11.93;;;9.27;;
17618;SDS011;8928;51.678;6.074;2023-02-17T11:21:07;12.83;;;9.07;;
17618;SDS011;8928;51.678;6.074;2023-02-17T11:23:57;13.77;;;8.93;;
17618;SDS011;8928;51.678;6.074;2023-02-17T11:26:53;12.20;;;9.30;;
17618;SDS011;8928;51.678;6.074;2023-02-17T11:29:41;12.43;;;9.00;;
17618;SDS011;8928;51.678;6.074;2023-02-17T11:32:30;13.03;;;9.00;;
17618;SDS011;8928;51.678;6.074;2023-02-17T11:35:19;12.13;;;8.90;;
17618;SDS011;8928;51.678;6.074;2023-02-17T11:38:10;13.27;;;9.00;;
17618;SDS011;8928;51.678;6.074;2023-02-17T11:41:00;13.50;;;9.27;;
17618;SDS011;8928;51.678;6.074;2023-02-17T11:43:52;11.23;;;8.70;;
17618;SDS011;8928;51.678;6.074;2023-02-17T11:46:43;13.27;;;9.13;;
17618;SDS011;8928;51.678;6.074;2023-02-17T11:49:43;11.37;;;8.40;;
17618;SDS011;8928;51.678;6.074;2023-02-17T11:52:47;12.17;;;8.00;;
17618;SDS011;8928;51.678;6.074;2023-02-17T11:55:46;12.50;;;8.30;;
17618;SDS011;8928;51.678;6.074;2023-02-17T11:58:49;10.50;;;7.77;;
17618;SDS011;8928;51.678;6.074;2023-02-17T12:01:57;11.40;;;7.37;;
17618;SDS011;8928;51.678;6.074;2023-02-17T12:05:09;10.77;;;7.67;;
17618;SDS011;8928;51.678;6.074;2023-02-17T12:08:10;10.37;;;7.57;;
17618;SDS011;8928;51.678;6.074;2023-02-17T12:11:05;11.70;;;7.57;;
17618;SDS011;8928;51.678;6.074;2023-02-17T12:13:59;10.73;;;7.43;;
17618;SDS011;8928;51.678;6.074;2023-02-17T12:16:59;11.13;;;8.23;;
17618;SDS011;8928;51.678;6.074;2023-02-17T12:20:00;11.70;;;8.50;;
17618;SDS011;8928;51.678;6.074;2023-02-17T12:22:57;12.67;;;8.27;;
17618;SDS011;8928;51.678;6.074;2023-02-17T12:25:53;12.40;;;8.43;;
17618;SDS011;8928;51.678;6.074;2023-02-17T12:28:47;14.03;;;9.47;;
17618;SDS011;8928;51.678;6.074;2023-02-17T12:31:50;17.13;;;10.20;;
17618;SDS011;8928;51.678;6.074;2023-02-17T12:34:54;14.30;;;10.30;;
17618;SDS011;8928;51.678;6.074;2023-02-17T12:37:47;15.13;;;10.33;;
17618;SDS011;8928;51.678;6.074;2023-02-17T12:40:40;16.77;;;10.90;;
17618;SDS011;8928;51.678;6.074;2023-02-17T12:43:33;15.77;;;10.87;;
17618;SDS011;8928;51.678;6.074;2023-02-17T12:46:25;15.60;;;10.77;;
17618;SDS011;8928;51.678;6.074;2023-02-17T12:49:15;14.23;;;9.63;;
17618;SDS011;8928;51.678;6.074;2023-02-17T12:52:07;14.00;;;10.37;;
17618;SDS011;8928;51.678;6.074;2023-02-17T12:55:02;15.87;;;10.27;;
17618;SDS011;8928;51.678;6.074;2023-02-17T12:57:58;19.63;;;11.80;;
17618;SDS011;8928;51.678;6.074;2023-02-17T13:00:51;19.67;;;12.87;;
17618;SDS011;8928;51.678;6.074;2023-02-17T13:03:43;19.90;;;13.67;;
17618;SDS011;8928;51.678;6.074;2023-02-17T13:06:32;21.50;;;13.77;;
17618;SDS011;8928;51.678;6.074;2023-02-17T13:09:24;18.00;;;13.20;;
17618;SDS011;8928;51.678;6.074;2023-02-17T13:12:17;20.97;;;14.07;;
17618;SDS011;8928;51.678;6.074;2023-02-17T13:15:26;18.77;;;13.70;;
17618;SDS011;8928;51.678;6.074;2023-02-17T13:18:25;20.23;;;13.57;;
17618;SDS011;8928;51.678;6.074;2023-02-17T13:21:15;20.13;;;12.97;;
17618;SDS011;8928;51.678;6.074;2023-02-17T13:24:05;15.93;;;11.87;;
17618;SDS011;8928;51.678;6.074;2023-02-17T13:27:08;16.07;;;11.93;;
17618;SDS011;8928;51.678;6.074;2023-02-17T13:29:59;14.47;;;10.57;;
17618;SDS011;8928;51.678;6.074;2023-02-17T13:32:59;13.87;;;10.10;;
17618;SDS011;8928;51.678;6.074;2023-02-17T13:35:47;14.43;;;10.27;;
17618;SDS011;8928;51.678;6.074;2023-02-17T13:38:34;12.67;;;8.90;;
17618;SDS011;8928;51.678;6.074;2023-02-17T13:41:21;12.00;;;7.83;;
17618;SDS011;8928;51.678;6.074;2023-02-17T13:44:23;10.97;;;7.40;;
17618;SDS011;8928;51.678;6.074;2023-02-17T13:47:13;11.57;;;7.40;;
17618;SDS011;8928;51.678;6.074;2023-02-17T13:50:20;12.97;;;7.37;;
17618;SDS011;8928;51.678;6.074;2023-02-17T13:53:24;11.83;;;7.30;;
17618;SDS011;8928;51.678;6.074;2023-02-17T13:56:22;10.93;;;6.60;;
17618;SDS011;8928;51.678;6.074;2023-02-17T13:59:13;11.37;;;6.97;;
17618;SDS011;8928;51.678;6.074;2023-02-17T14:02:02;10.60;;;6.40;;
17618;SDS011;8928;51.678;6.074;2023-02-17T14:05:03;8.00;;;5.07;;
17618;SDS011;8928;51.678;6.074;2023-02-17T14:08:02;10.43;;;5.77;;
17618;SDS011;8928;51.678;6.074;2023-02-17T14:10:51;8.57;;;4.77;;
17618;SDS011;8928;51.678;6.074;2023-02-17T14:13:39;7.87;;;5.20;;
17618;SDS011;8928;51.678;6.074;2023-02-17T14:16:29;9.07;;;5.10;;
17618;SDS011;8928;51.678;6.074;2023-02-17T14:19:17;9.73;;;5.43;;
17618;SDS011;8928;51.678;6.074;2023-02-17T14:22:06;10.07;;;5.70;;
17618;SDS011;8928;51.678;6.074;2023-02-17T14:24:58;9.67;;;5.50;;
17618;SDS011;8928;51.678;6.074;2023-02-17T14:27:47;11.13;;;5.83;;
17618;SDS011;8928;51.678;6.074;2023-02-17T14:30:36;7.77;;;5.00;;
17618;SDS011;8928;51.678;6.074;2023-02-17T14:33:24;11.70;;;5.10;;
17618;SDS011;8928;51.678;6.074;2023-02-17T14:36:11;12.40;;;5.47;;
17618;SDS011;8928;51.678;6.074;2023-02-17T14:39:00;10.27;;;4.80;;
17618;SDS011;8928;51.678;6.074;2023-02-17T14:41:49;9.47;;;4.40;;
17618;SDS011;8928;51.678;6.074;2023-02-17T14:44:36;10.90;;;3.90;;
17618;SDS011;8928;51.678;6.074;2023-02-17T14:47:24;10.13;;;3.47;;
17618;SDS011;8928;51.678;6.074;2023-02-17T14:50:11;6.17;;;3.47;;
17618;SDS011;8928;51.678;6.074;2023-02-17T14:53:00;7.13;;;3.40;;
17618;SDS011;8928;51.678;6.074;2023-02-17T14:55:49;6.63;;;3.10;;
17618;SDS011;8928;51.678;6.074;2023-02-17T14:58:39;8.33;;;4.17;;
17618;SDS011;8928;51.678;6.074;2023-02-17T15:01:26;7.50;;;4.53;;
17618;SDS011;8928;51.678;6.074;2023-02-17T15:04:13;8.40;;;4.43;;
17618;SDS011;8928;51.678;6.074;2023-02-17T15:07:00;9.03;;;4.70;;
17618;SDS011;8928;51.678;6.074;2023-02-17T15:09:47;9.57;;;5.27;;
17618;SDS011;8928;51.678;6.074;2023-02-17T15:12:36;8.47;;;4.90;;
17618;SDS011;8928;51.678;6.074;2023-02-17T15:15:23;9.33;;;4.90;;
17618;SDS011;8928;51.678;6.074;2023-02-17T15:18:10;10.10;;;4.90;;
17618;SDS011;8928;51.678;6.074;2023-02-17T15:20:57;10.47;;;4.47;;
17618;SDS011;8928;51.678;6.074;2023-02-17T15:23:44;9.53;;;4.87;;
17618;SDS011;8928;51.678;6.074;2023-02-17T15:26:31;10.23;;;4.83;;
17618;SDS011;8928;51.678;6.074;2023-02-17T15:29:20;9.83;;;4.13;;
17618;SDS011;8928;51.678;6.074;2023-02-17T15:32:11;8.87;;;4.60;;
17618;SDS011;8928;51.678;6.074;2023-02-17T15:35:04;8.63;;;5.20;;
17618;SDS011;8928;51.678;6.074;2023-02-17T15:38:01;12.53;;;5.50;;
17618;SDS011;8928;51.678;6.074;2023-02-17T15:40:48;10.47;;;5.50;;
17618;SDS011;8928;51.678;6.074;2023-02-17T15:43:35;8.23;;;5.10;;
17618;SDS011;8928;51.678;6.074;2023-02-17T15:46:25;9.47;;;4.33;;
17618;SDS011;8928;51.678;6.074;2023-02-17T15:49:15;11.23;;;4.40;;
17618;SDS011;8928;51.678;6.074;2023-02-17T15:52:02;8.67;;;3.80;;
17618;SDS011;8928;51.678;6.074;2023-02-17T15:54:49;8.07;;;3.70;;
17618;SDS011;8928;51.678;6.074;2023-02-17T15:57:38;11.27;;;3.50;;
17618;SDS011;8928;51.678;6.074;2023-02-17T16:00:30;8.77;;;3.90;;
17618;SDS011;8928;51.678;6.074;2023-02-17T16:03:20;8.73;;;3.90;;
17618;SDS011;8928;51.678;6.074;2023-02-17T16:06:07;10.30;;;3.90;;
17618;SDS011;8928;51.678;6.074;2023-02-17T16:08:55;6.03;;;3.70;;
17618;SDS011;8928;51.678;6.074;2023-02-17T16:11:45;8.33;;;3.53;;
17618;SDS011;8928;51.678;6.074;2023-02-17T16:14:34;7.20;;;3.90;;
17618;SDS011;8928;51.678;6.074;2023-02-17T16:17:23;8.57;;;4.00;;
17618;SDS011;8928;51.678;6.074;2023-02-17T16:20:16;8.00;;;3.67;;
17618;SDS011;8928;51.678;6.074;2023-02-17T16:23:05;6.70;;;3.33;;
17618;SDS011;8928;51.678;6.074;2023-02-17T16:25:52;5.50;;;3.50;;
17618;SDS011;8928;51.678;6.074;2023-02-17T16:28:39;7.73;;;3.40;;
17618;SDS011;8928;51.678;6.074;2023-02-17T16:31:26;7.20;;;3.53;;
17618;SDS011;8928;51.678;6.074;2023-02-17T16:34:16;7.63;;;3.43;;
17618;SDS011;8928;51.678;6.074;2023-02-17T16:37:10;5.30;;;3.30;;
17618;SDS011;8928;51.678;6.074;2023-02-17T16:39:59;6.60;;;3.60;;
17618;SDS011;8928;51.678;6.074;2023-02-17T16:42:46;7.87;;;3.37;;
17618;SDS011;8928;51.678;6.074;2023-02-17T16:45:33;8.37;;;3.53;;
17618;SDS011;8928;51.678;6.074;2023-02-17T16:48:21;7.83;;;3.60;;
17618;SDS011;8928;51.678;6.074;2023-02-17T16:51:09;8.10;;;3.87;;
17618;SDS011;8928;51.678;6.074;2023-02-17T16:53:57;9.80;;;3.60;;
17618;SDS011;8928;51.678;6.074;2023-02-17T16:56:45;9.97;;;3.80;;
17618;SDS011;8928;51.678;6.074;2023-02-17T16:59:34;6.37;;;3.93;;
17618;SDS011;8928;51.678;6.074;2023-02-17T17:02:21;6.87;;;3.73;;
17618;SDS011;8928;51.678;6.074;2023-02-17T17:05:08;6.77;;;3.87;;
17618;SDS011;8928;51.678;6.074;2023-02-17T17:07:55;8.93;;;4.00;;